Hovedside
METAR-TAF:

METAR-TAF

Lufthavner :

Retalhuleu, Guatemala

breddegrad: 14-32N, lengdegrad: 091-40W, høyde over havet: 239 m

Gjeldene værobservasjon

Denne rapporten ble laget for 4 timer og 24 minutter siden, klokken 00:00 UTC
Vind 6 kt fra Vest-sørvest
Temperatur 31°C
Luftfuktighet 63%
Trykk 1012 hPa
Sikt: 6000 m
Brutte skyer i en høyde av 1800 ft
dis,

METAR: MGRT 200000Z 25006KT 6000 BKN018 31/23 Q1012 A2988 HZ VOL. STA MARIA Y SANTIAGUITO EN ACTIVIDAD

Tid: 22:24 (04:24 UTC)


TAF: fraværende

Værobservasjoner og værvarsel for over 4000 flyplasser (METAR- og TAF-rapporter).

Tilgjengelige stasjoner er representert av de røde og gule prikkene på kartet.

Hold musepekeren over prikken for å se navnet på stasjonen.

Klikk så for å se værobservasjoner og -varsler.

For å forandre kartet kan du klikke på den grønne knappen med svart kryss for å zoome inn, på den grønne knappen med strek for å zoome ut, eller på de grønne pilene for å se tilstøtende kart.


METAR-TAF: